sensor_id;sensor_type;location;lat;lon;timestamp;P1;durP1;ratioP1;P2;durP2;ratioP2
2289;SDS011;1153;47.986;7.898;2024-02-28T00:01:19;12.40;;;8.90;;
2289;SDS011;1153;47.986;7.898;2024-02-28T00:03:44;13.73;;;9.03;;
2289;SDS011;1153;47.986;7.898;2024-02-28T00:06:09;13.70;;;8.57;;
2289;SDS011;1153;47.986;7.898;2024-02-28T00:08:35;11.17;;;7.77;;
2289;SDS011;1153;47.986;7.898;2024-02-28T00:11:00;13.00;;;8.37;;
2289;SDS011;1153;47.986;7.898;2024-02-28T00:13:25;13.00;;;8.87;;
2289;SDS011;1153;47.986;7.898;2024-02-28T00:15:50;19.90;;;9.87;;
2289;SDS011;1153;47.986;7.898;2024-02-28T00:18:16;22.70;;;12.00;;
2289;SDS011;1153;47.986;7.898;2024-02-28T00:20:41;19.53;;;10.17;;
2289;SDS011;1153;47.986;7.898;2024-02-28T00:23:06;15.03;;;9.00;;
2289;SDS011;1153;47.986;7.898;2024-02-28T00:25:31;12.50;;;8.90;;
2289;SDS011;1153;47.986;7.898;2024-02-28T00:27:56;19.57;;;10.97;;
2289;SDS011;1153;47.986;7.898;2024-02-28T00:30:22;15.80;;;8.47;;
2289;SDS011;1153;47.986;7.898;2024-02-28T00:32:47;10.23;;;7.97;;
2289;SDS011;1153;47.986;7.898;2024-02-28T00:35:12;20.40;;;9.63;;
2289;SDS011;1153;47.986;7.898;2024-02-28T00:37:38;11.40;;;7.63;;
2289;SDS011;1153;47.986;7.898;2024-02-28T00:40:03;12.50;;;8.00;;
2289;SDS011;1153;47.986;7.898;2024-02-28T00:42:29;9.30;;;7.63;;
2289;SDS011;1153;47.986;7.898;2024-02-28T00:44:54;25.13;;;9.80;;
2289;SDS011;1153;47.986;7.898;2024-02-28T00:47:19;13.00;;;8.17;;
2289;SDS011;1153;47.986;7.898;2024-02-28T00:49:44;11.23;;;8.63;;
2289;SDS011;1153;47.986;7.898;2024-02-28T00:52:09;14.40;;;9.20;;
2289;SDS011;1153;47.986;7.898;2024-02-28T00:54:35;17.93;;;9.20;;
2289;SDS011;1153;47.986;7.898;2024-02-28T00:57:00;14.30;;;9.47;;
2289;SDS011;1153;47.986;7.898;2024-02-28T00:59:25;15.20;;;9.73;;
2289;SDS011;1153;47.986;7.898;2024-02-28T01:01:50;12.00;;;8.17;;
2289;SDS011;1153;47.986;7.898;2024-02-28T01:04:16;13.43;;;9.53;;
2289;SDS011;1153;47.986;7.898;2024-02-28T01:06:41;13.20;;;8.43;;
2289;SDS011;1153;47.986;7.898;2024-02-28T01:09:06;17.13;;;9.20;;
2289;SDS011;1153;47.986;7.898;2024-02-28T01:11:32;12.70;;;8.73;;
2289;SDS011;1153;47.986;7.898;2024-02-28T01:13:57;17.10;;;9.20;;
2289;SDS011;1153;47.986;7.898;2024-02-28T01:16:22;15.53;;;9.00;;
2289;SDS011;1153;47.986;7.898;2024-02-28T01:18:47;12.03;;;8.67;;
2289;SDS011;1153;47.986;7.898;2024-02-28T01:21:12;15.10;;;9.50;;
2289;SDS011;1153;47.986;7.898;2024-02-28T01:23:38;15.30;;;8.13;;
2289;SDS011;1153;47.986;7.898;2024-02-28T01:26:03;17.57;;;9.33;;
2289;SDS011;1153;47.986;7.898;2024-02-28T01:28:29;13.93;;;10.17;;
2289;SDS011;1153;47.986;7.898;2024-02-28T01:30:54;17.57;;;11.33;;
2289;SDS011;1153;47.986;7.898;2024-02-28T01:33:19;17.80;;;10.67;;
2289;SDS011;1153;47.986;7.898;2024-02-28T01:35:44;19.47;;;11.03;;
2289;SDS011;1153;47.986;7.898;2024-02-28T01:38:09;16.60;;;10.80;;
2289;SDS011;1153;47.986;7.898;2024-02-28T01:40:35;22.13;;;11.67;;
2289;SDS011;1153;47.986;7.898;2024-02-28T01:43:03;17.80;;;10.43;;
2289;SDS011;1153;47.986;7.898;2024-02-28T01:45:29;23.50;;;13.40;;
2289;SDS011;1153;47.986;7.898;2024-02-28T01:47:54;17.83;;;11.07;;
2289;SDS011;1153;47.986;7.898;2024-02-28T01:50:19;17.33;;;11.27;;
2289;SDS011;1153;47.986;7.898;2024-02-28T01:52:45;23.50;;;12.70;;
2289;SDS011;1153;47.986;7.898;2024-02-28T01:55:10;26.60;;;13.60;;
2289;SDS011;1153;47.986;7.898;2024-02-28T01:57:36;26.07;;;13.20;;
2289;SDS011;1153;47.986;7.898;2024-02-28T02:00:02;24.93;;;13.20;;
2289;SDS011;1153;47.986;7.898;2024-02-28T02:02:27;20.80;;;12.00;;
2289;SDS011;1153;47.986;7.898;2024-02-28T02:04:52;24.20;;;12.90;;
2289;SDS011;1153;47.986;7.898;2024-02-28T02:07:19;39.67;;;13.10;;
2289;SDS011;1153;47.986;7.898;2024-02-28T02:09:44;23.37;;;11.97;;
2289;SDS011;1153;47.986;7.898;2024-02-28T02:12:10;24.23;;;13.57;;
2289;SDS011;1153;47.986;7.898;2024-02-28T02:14:35;31.00;;;13.63;;
2289;SDS011;1153;47.986;7.898;2024-02-28T02:17:00;28.03;;;14.10;;
2289;SDS011;1153;47.986;7.898;2024-02-28T02:19:25;26.67;;;14.03;;
2289;SDS011;1153;47.986;7.898;2024-02-28T02:21:54;24.53;;;14.10;;
2289;SDS011;1153;47.986;7.898;2024-02-28T02:24:22;28.60;;;14.90;;
2289;SDS011;1153;47.986;7.898;2024-02-28T02:26:47;29.27;;;14.37;;
2289;SDS011;1153;47.986;7.898;2024-02-28T02:29:12;28.37;;;13.50;;
2289;SDS011;1153;47.986;7.898;2024-02-28T02:31:38;24.60;;;13.00;;
2289;SDS011;1153;47.986;7.898;2024-02-28T02:34:03;25.80;;;14.83;;
2289;SDS011;1153;47.986;7.898;2024-02-28T02:36:28;24.93;;;15.13;;
2289;SDS011;1153;47.986;7.898;2024-02-28T02:38:53;24.60;;;14.23;;
2289;SDS011;1153;47.986;7.898;2024-02-28T02:41:18;32.73;;;15.77;;
2289;SDS011;1153;47.986;7.898;2024-02-28T02:43:44;27.63;;;15.57;;
2289;SDS011;1153;47.986;7.898;2024-02-28T02:46:09;28.17;;;17.10;;
2289;SDS011;1153;47.986;7.898;2024-02-28T02:48:34;25.30;;;14.80;;
2289;SDS011;1153;47.986;7.898;2024-02-28T02:51:00;34.20;;;16.00;;
2289;SDS011;1153;47.986;7.898;2024-02-28T02:53:25;30.77;;;14.70;;
2289;SDS011;1153;47.986;7.898;2024-02-28T02:55:50;31.57;;;15.80;;
2289;SDS011;1153;47.986;7.898;2024-02-28T02:58:15;33.13;;;15.47;;
2289;SDS011;1153;47.986;7.898;2024-02-28T03:00:40;28.00;;;13.23;;
2289;SDS011;1153;47.986;7.898;2024-02-28T03:03:06;24.20;;;13.23;;
2289;SDS011;1153;47.986;7.898;2024-02-28T03:05:31;35.37;;;17.20;;
2289;SDS011;1153;47.986;7.898;2024-02-28T03:07:56;28.07;;;15.17;;
2289;SDS011;1153;47.986;7.898;2024-02-28T03:10:21;27.63;;;13.53;;
2289;SDS011;1153;47.986;7.898;2024-02-28T03:12:47;26.23;;;15.77;;
2289;SDS011;1153;47.986;7.898;2024-02-28T03:15:12;29.67;;;16.33;;
2289;SDS011;1153;47.986;7.898;2024-02-28T03:17:37;29.37;;;15.20;;
2289;SDS011;1153;47.986;7.898;2024-02-28T03:20:02;34.35;;;16.42;;
2289;SDS011;1153;47.986;7.898;2024-02-28T03:22:28;29.97;;;15.63;;
2289;SDS011;1153;47.986;7.898;2024-02-28T03:24:53;26.00;;;13.83;;
2289;SDS011;1153;47.986;7.898;2024-02-28T03:27:18;25.90;;;15.27;;
2289;SDS011;1153;47.986;7.898;2024-02-28T03:29:43;30.43;;;15.37;;
2289;SDS011;1153;47.986;7.898;2024-02-28T03:32:09;28.37;;;14.50;;
2289;SDS011;1153;47.986;7.898;2024-02-28T03:34:34;29.03;;;16.50;;
2289;SDS011;1153;47.986;7.898;2024-02-28T03:36:59;31.27;;;15.30;;
2289;SDS011;1153;47.986;7.898;2024-02-28T03:39:24;31.90;;;15.23;;
2289;SDS011;1153;47.986;7.898;2024-02-28T03:41:49;30.73;;;14.27;;
2289;SDS011;1153;47.986;7.898;2024-02-28T03:44:15;31.63;;;16.60;;
2289;SDS011;1153;47.986;7.898;2024-02-28T03:46:40;35.67;;;16.70;;
2289;SDS011;1153;47.986;7.898;2024-02-28T03:49:05;26.10;;;15.20;;
2289;SDS011;1153;47.986;7.898;2024-02-28T03:51:30;29.73;;;15.63;;
2289;SDS011;1153;47.986;7.898;2024-02-28T03:53:55;36.57;;;17.50;;
2289;SDS011;1153;47.986;7.898;2024-02-28T03:56:24;27.30;;;15.13;;
2289;SDS011;1153;47.986;7.898;2024-02-28T03:58:52;31.67;;;15.73;;
2289;SDS011;1153;47.986;7.898;2024-02-28T04:01:18;37.20;;;17.10;;
2289;SDS011;1153;47.986;7.898;2024-02-28T04:03:43;23.03;;;13.57;;
2289;SDS011;1153;47.986;7.898;2024-02-28T04:06:08;28.03;;;15.60;;
2289;SDS011;1153;47.986;7.898;2024-02-28T04:08:33;27.93;;;14.40;;
2289;SDS011;1153;47.986;7.898;2024-02-28T04:10:58;31.00;;;15.77;;
2289;SDS011;1153;47.986;7.898;2024-02-28T04:13:23;33.57;;;16.80;;
2289;SDS011;1153;47.986;7.898;2024-02-28T04:15:49;29.67;;;15.33;;
2289;SDS011;1153;47.986;7.898;2024-02-28T04:18:14;33.47;;;16.20;;
2289;SDS011;1153;47.986;7.898;2024-02-28T04:20:39;38.73;;;16.87;;
2289;SDS011;1153;47.986;7.898;2024-02-28T04:23:04;36.47;;;17.60;;
2289;SDS011;1153;47.986;7.898;2024-02-28T04:25:30;27.97;;;14.80;;
2289;SDS011;1153;47.986;7.898;2024-02-28T04:27:55;36.17;;;16.17;;
2289;SDS011;1153;47.986;7.898;2024-02-28T04:30:21;27.03;;;16.63;;
2289;SDS011;1153;47.986;7.898;2024-02-28T04:32:47;27.77;;;15.77;;
2289;SDS011;1153;47.986;7.898;2024-02-28T04:35:12;34.40;;;15.57;;
2289;SDS011;1153;47.986;7.898;2024-02-28T04:37:40;36.17;;;16.40;;
2289;SDS011;1153;47.986;7.898;2024-02-28T04:40:05;26.70;;;15.10;;
2289;SDS011;1153;47.986;7.898;2024-02-28T04:42:31;29.20;;;16.87;;
2289;SDS011;1153;47.986;7.898;2024-02-28T04:44:56;28.97;;;14.77;;
2289;SDS011;1153;47.986;7.898;2024-02-28T04:47:22;32.97;;;15.57;;
2289;SDS011;1153;47.986;7.898;2024-02-28T04:49:48;31.60;;;16.20;;
2289;SDS011;1153;47.986;7.898;2024-02-28T04:52:13;37.30;;;17.17;;
2289;SDS011;1153;47.986;7.898;2024-02-28T04:54:39;27.67;;;15.00;;
2289;SDS011;1153;47.986;7.898;2024-02-28T04:57:05;37.27;;;18.37;;
2289;SDS011;1153;47.986;7.898;2024-02-28T04:59:30;28.00;;;15.63;;
2289;SDS011;1153;47.986;7.898;2024-02-28T05:01:55;34.87;;;15.77;;
2289;SDS011;1153;47.986;7.898;2024-02-28T05:04:20;30.77;;;14.90;;
2289;SDS011;1153;47.986;7.898;2024-02-28T05:06:46;40.73;;;16.57;;
2289;SDS011;1153;47.986;7.898;2024-02-28T05:09:11;33.63;;;16.90;;
2289;SDS011;1153;47.986;7.898;2024-02-28T05:11:36;28.30;;;15.10;;
2289;SDS011;1153;47.986;7.898;2024-02-28T05:14:01;37.47;;;15.73;;
2289;SDS011;1153;47.986;7.898;2024-02-28T05:16:26;29.67;;;14.80;;
2289;SDS011;1153;47.986;7.898;2024-02-28T05:18:51;31.40;;;15.57;;
2289;SDS011;1153;47.986;7.898;2024-02-28T05:21:17;29.73;;;15.43;;
2289;SDS011;1153;47.986;7.898;2024-02-28T05:23:42;30.47;;;16.83;;
2289;SDS011;1153;47.986;7.898;2024-02-28T05:26:07;32.13;;;15.57;;
2289;SDS011;1153;47.986;7.898;2024-02-28T05:28:33;33.97;;;15.70;;
2289;SDS011;1153;47.986;7.898;2024-02-28T05:30:59;37.67;;;16.10;;
2289;SDS011;1153;47.986;7.898;2024-02-28T05:33:25;30.40;;;14.90;;
2289;SDS011;1153;47.986;7.898;2024-02-28T05:35:50;25.43;;;14.43;;
2289;SDS011;1153;47.986;7.898;2024-02-28T05:38:15;36.20;;;15.37;;
2289;SDS011;1153;47.986;7.898;2024-02-28T05:40:41;31.90;;;14.47;;
2289;SDS011;1153;47.986;7.898;2024-02-28T05:43:06;31.67;;;15.50;;
2289;SDS011;1153;47.986;7.898;2024-02-28T05:45:32;34.80;;;16.63;;
2289;SDS011;1153;47.986;7.898;2024-02-28T05:47:57;29.03;;;14.33;;
2289;SDS011;1153;47.986;7.898;2024-02-28T05:50:22;39.90;;;19.77;;
2289;SDS011;1153;47.986;7.898;2024-02-28T05:52:47;29.37;;;15.97;;
2289;SDS011;1153;47.986;7.898;2024-02-28T05:55:12;34.60;;;16.33;;
2289;SDS011;1153;47.986;7.898;2024-02-28T05:57:38;27.40;;;14.67;;
2289;SDS011;1153;47.986;7.898;2024-02-28T06:00:03;29.33;;;14.37;;
2289;SDS011;1153;47.986;7.898;2024-02-28T06:02:34;37.73;;;17.73;;
2289;SDS011;1153;47.986;7.898;2024-02-28T06:04:59;40.37;;;17.80;;
2289;SDS011;1153;47.986;7.898;2024-02-28T06:07:25;41.70;;;17.23;;
2289;SDS011;1153;47.986;7.898;2024-02-28T06:09:50;33.10;;;15.77;;
2289;SDS011;1153;47.986;7.898;2024-02-28T06:12:15;33.20;;;16.47;;
2289;SDS011;1153;47.986;7.898;2024-02-28T06:14:40;33.40;;;15.70;;
2289;SDS011;1153;47.986;7.898;2024-02-28T06:17:06;32.33;;;16.50;;
2289;SDS011;1153;47.986;7.898;2024-02-28T06:19:31;35.87;;;15.70;;
2289;SDS011;1153;47.986;7.898;2024-02-28T06:21:56;34.10;;;15.30;;
2289;SDS011;1153;47.986;7.898;2024-02-28T06:24:21;36.03;;;17.20;;
2289;SDS011;1153;47.986;7.898;2024-02-28T06:26:46;36.77;;;17.53;;
2289;SDS011;1153;47.986;7.898;2024-02-28T06:29:12;35.67;;;16.80;;
2289;SDS011;1153;47.986;7.898;2024-02-28T06:31:37;28.43;;;15.13;;
2289;SDS011;1153;47.986;7.898;2024-02-28T06:34:02;34.97;;;16.53;;
2289;SDS011;1153;47.986;7.898;2024-02-28T06:36:28;31.97;;;17.10;;
2289;SDS011;1153;47.986;7.898;2024-02-28T06:38:53;31.67;;;15.10;;
2289;SDS011;1153;47.986;7.898;2024-02-28T06:41:18;41.43;;;18.40;;
2289;SDS011;1153;47.986;7.898;2024-02-28T06:43:44;34.53;;;16.60;;
2289;SDS011;1153;47.986;7.898;2024-02-28T06:46:10;36.20;;;16.23;;
2289;SDS011;1153;47.986;7.898;2024-02-28T06:48:36;34.27;;;16.17;;
2289;SDS011;1153;47.986;7.898;2024-02-28T06:51:01;39.70;;;16.67;;
2289;SDS011;1153;47.986;7.898;2024-02-28T06:53:26;31.00;;;15.43;;
2289;SDS011;1153;47.986;7.898;2024-02-28T06:55:51;39.60;;;17.70;;
2289;SDS011;1153;47.986;7.898;2024-02-28T06:58:16;34.60;;;15.70;;
2289;SDS011;1153;47.986;7.898;2024-02-28T07:00:42;38.07;;;15.60;;
2289;SDS011;1153;47.986;7.898;2024-02-28T07:03:07;32.37;;;16.27;;
2289;SDS011;1153;47.986;7.898;2024-02-28T07:05:33;31.73;;;16.53;;
2289;SDS011;1153;47.986;7.898;2024-02-28T07:07:58;32.60;;;16.00;;
2289;SDS011;1153;47.986;7.898;2024-02-28T07:10:24;40.93;;;17.03;;
2289;SDS011;1153;47.986;7.898;2024-02-28T07:12:49;34.60;;;15.90;;
2289;SDS011;1153;47.986;7.898;2024-02-28T07:15:14;35.50;;;16.03;;
2289;SDS011;1153;47.986;7.898;2024-02-28T07:17:39;39.53;;;17.23;;
2289;SDS011;1153;47.986;7.898;2024-02-28T07:20:04;30.13;;;16.17;;
2289;SDS011;1153;47.986;7.898;2024-02-28T07:22:30;32.30;;;15.73;;
2289;SDS011;1153;47.986;7.898;2024-02-28T07:24:55;32.63;;;15.83;;
2289;SDS011;1153;47.986;7.898;2024-02-28T07:27:22;38.23;;;17.50;;
2289;SDS011;1153;47.986;7.898;2024-02-28T07:29:47;33.07;;;16.47;;
2289;SDS011;1153;47.986;7.898;2024-02-28T07:32:12;35.90;;;16.67;;
2289;SDS011;1153;47.986;7.898;2024-02-28T07:34:37;30.70;;;16.33;;
2289;SDS011;1153;47.986;7.898;2024-02-28T07:37:02;42.47;;;18.37;;
2289;SDS011;1153;47.986;7.898;2024-02-28T07:39:27;32.33;;;16.07;;
2289;SDS011;1153;47.986;7.898;2024-02-28T07:41:53;33.23;;;15.77;;
2289;SDS011;1153;47.986;7.898;2024-02-28T07:44:18;34.60;;;17.67;;
2289;SDS011;1153;47.986;7.898;2024-02-28T07:46:43;38.47;;;17.17;;
2289;SDS011;1153;47.986;7.898;2024-02-28T07:49:09;31.73;;;16.10;;
2289;SDS011;1153;47.986;7.898;2024-02-28T07:51:35;32.90;;;18.00;;
2289;SDS011;1153;47.986;7.898;2024-02-28T07:54:01;36.97;;;19.30;;
2289;SDS011;1153;47.986;7.898;2024-02-28T07:56:26;34.80;;;16.57;;
2289;SDS011;1153;47.986;7.898;2024-02-28T07:58:51;38.50;;;16.67;;
2289;SDS011;1153;47.986;7.898;2024-02-28T08:01:16;33.17;;;16.60;;
2289;SDS011;1153;47.986;7.898;2024-02-28T08:03:42;40.00;;;19.53;;
2289;SDS011;1153;47.986;7.898;2024-02-28T08:06:07;38.70;;;17.87;;
2289;SDS011;1153;47.986;7.898;2024-02-28T08:08:33;36.80;;;17.80;;
2289;SDS011;1153;47.986;7.898;2024-02-28T08:10:58;39.53;;;18.20;;
2289;SDS011;1153;47.986;7.898;2024-02-28T08:13:24;40.17;;;18.43;;
2289;SDS011;1153;47.986;7.898;2024-02-28T08:15:51;36.37;;;18.23;;
2289;SDS011;1153;47.986;7.898;2024-02-28T08:18:17;34.63;;;16.57;;
2289;SDS011;1153;47.986;7.898;2024-02-28T08:20:42;41.93;;;18.30;;
2289;SDS011;1153;47.986;7.898;2024-02-28T08:23:07;43.93;;;18.53;;
2289;SDS011;1153;47.986;7.898;2024-02-28T08:25:32;42.50;;;17.93;;
2289;SDS011;1153;47.986;7.898;2024-02-28T08:27:58;38.10;;;16.67;;
2289;SDS011;1153;47.986;7.898;2024-02-28T08:30:23;34.40;;;18.23;;
2289;SDS011;1153;47.986;7.898;2024-02-28T08:32:48;36.90;;;17.70;;
2289;SDS011;1153;47.986;7.898;2024-02-28T08:35:13;36.20;;;17.33;;
2289;SDS011;1153;47.986;7.898;2024-02-28T08:37:39;48.50;;;19.37;;
2289;SDS011;1153;47.986;7.898;2024-02-28T08:40:04;46.53;;;20.20;;
2289;SDS011;1153;47.986;7.898;2024-02-28T08:42:30;55.87;;;21.27;;
2289;SDS011;1153;47.986;7.898;2024-02-28T08:44:55;35.83;;;19.30;;
2289;SDS011;1153;47.986;7.898;2024-02-28T08:47:23;49.23;;;20.80;;
2289;SDS011;1153;47.986;7.898;2024-02-28T08:49:49;38.43;;;18.80;;
2289;SDS011;1153;47.986;7.898;2024-02-28T08:52:14;46.83;;;20.50;;
2289;SDS011;1153;47.986;7.898;2024-02-28T08:54:39;47.50;;;20.67;;
2289;SDS011;1153;47.986;7.898;2024-02-28T08:57:04;48.00;;;19.03;;
2289;SDS011;1153;47.986;7.898;2024-02-28T08:59:29;44.60;;;18.80;;
2289;SDS011;1153;47.986;7.898;2024-02-28T09:01:55;44.50;;;18.70;;
2289;SDS011;1153;47.986;7.898;2024-02-28T09:04:20;42.67;;;18.40;;
2289;SDS011;1153;47.986;7.898;2024-02-28T09:06:46;54.80;;;19.10;;
2289;SDS011;1153;47.986;7.898;2024-02-28T09:09:11;61.73;;;20.77;;
2289;SDS011;1153;47.986;7.898;2024-02-28T09:11:36;35.50;;;16.87;;
2289;SDS011;1153;47.986;7.898;2024-02-28T09:14:01;43.83;;;19.77;;
2289;SDS011;1153;47.986;7.898;2024-02-28T09:16:26;44.33;;;17.80;;
2289;SDS011;1153;47.986;7.898;2024-02-28T09:18:52;44.23;;;17.90;;
2289;SDS011;1153;47.986;7.898;2024-02-28T09:21:17;40.10;;;18.30;;
2289;SDS011;1153;47.986;7.898;2024-02-28T09:23:42;51.73;;;18.80;;
2289;SDS011;1153;47.986;7.898;2024-02-28T09:26:07;39.03;;;18.50;;
2289;SDS011;1153;47.986;7.898;2024-02-28T09:28:33;46.13;;;17.90;;
2289;SDS011;1153;47.986;7.898;2024-02-28T09:30:58;39.00;;;18.77;;
2289;SDS011;1153;47.986;7.898;2024-02-28T09:33:23;38.47;;;17.93;;
2289;SDS011;1153;47.986;7.898;2024-02-28T09:35:48;35.37;;;17.80;;
2289;SDS011;1153;47.986;7.898;2024-02-28T09:38:13;39.10;;;19.70;;
2289;SDS011;1153;47.986;7.898;2024-02-28T09:40:39;49.33;;;17.90;;
2289;SDS011;1153;47.986;7.898;2024-02-28T09:43:04;39.40;;;18.90;;
2289;SDS011;1153;47.986;7.898;2024-02-28T09:45:29;39.57;;;17.60;;
2289;SDS011;1153;47.986;7.898;2024-02-28T09:47:58;43.97;;;18.83;;
2289;SDS011;1153;47.986;7.898;2024-02-28T09:50:25;41.50;;;18.80;;
2289;SDS011;1153;47.986;7.898;2024-02-28T09:52:50;49.63;;;21.10;;
2289;SDS011;1153;47.986;7.898;2024-02-28T09:55:15;42.73;;;19.23;;
2289;SDS011;1153;47.986;7.898;2024-02-28T09:57:40;48.20;;;19.50;;
2289;SDS011;1153;47.986;7.898;2024-02-28T10:00:06;45.53;;;19.10;;
2289;SDS011;1153;47.986;7.898;2024-02-28T10:02:32;41.40;;;18.50;;
2289;SDS011;1153;47.986;7.898;2024-02-28T10:04:59;41.20;;;18.87;;
2289;SDS011;1153;47.986;7.898;2024-02-28T10:07:25;43.27;;;18.40;;
2289;SDS011;1153;47.986;7.898;2024-02-28T10:09:50;49.57;;;19.80;;
2289;SDS011;1153;47.986;7.898;2024-02-28T10:12:15;41.90;;;19.00;;
2289;SDS011;1153;47.986;7.898;2024-02-28T10:14:40;37.00;;;18.60;;
2289;SDS011;1153;47.986;7.898;2024-02-28T10:17:06;47.00;;;19.00;;
2289;SDS011;1153;47.986;7.898;2024-02-28T10:19:34;46.60;;;18.87;;
2289;SDS011;1153;47.986;7.898;2024-02-28T10:21:59;39.40;;;19.00;;
2289;SDS011;1153;47.986;7.898;2024-02-28T10:24:24;44.43;;;19.50;;
2289;SDS011;1153;47.986;7.898;2024-02-28T10:26:50;45.87;;;20.53;;
2289;SDS011;1153;47.986;7.898;2024-02-28T10:29:21;47.00;;;20.53;;
2289;SDS011;1153;47.986;7.898;2024-02-28T10:31:47;42.07;;;16.73;;
2289;SDS011;1153;47.986;7.898;2024-02-28T10:34:12;43.00;;;18.17;;
2289;SDS011;1153;47.986;7.898;2024-02-28T10:36:38;56.30;;;19.93;;
2289;SDS011;1153;47.986;7.898;2024-02-28T10:39:03;36.00;;;17.43;;
2289;SDS011;1153;47.986;7.898;2024-02-28T10:41:29;38.10;;;17.50;;
2289;SDS011;1153;47.986;7.898;2024-02-28T10:43:54;32.00;;;16.53;;
2289;SDS011;1153;47.986;7.898;2024-02-28T10:46:20;35.70;;;17.07;;
2289;SDS011;1153;47.986;7.898;2024-02-28T10:48:46;30.27;;;17.17;;
2289;SDS011;1153;47.986;7.898;2024-02-28T10:51:13;43.90;;;18.70;;
2289;SDS011;1153;47.986;7.898;2024-02-28T10:53:41;42.30;;;18.10;;
2289;SDS011;1153;47.986;7.898;2024-02-28T10:56:06;33.60;;;17.50;;
2289;SDS011;1153;47.986;7.898;2024-02-28T10:58:35;36.57;;;16.83;;
2289;SDS011;1153;47.986;7.898;2024-02-28T11:01:01;38.43;;;16.63;;
2289;SDS011;1153;47.986;7.898;2024-02-28T11:03:27;36.10;;;18.03;;
2289;SDS011;1153;47.986;7.898;2024-02-28T11:05:52;30.00;;;16.30;;
2289;SDS011;1153;47.986;7.898;2024-02-28T11:08:21;46.23;;;17.07;;
2289;SDS011;1153;47.986;7.898;2024-02-28T11:10:47;27.17;;;15.07;;
2289;SDS011;1153;47.986;7.898;2024-02-28T11:13:25;34.53;;;14.90;;
2289;SDS011;1153;47.986;7.898;2024-02-28T11:15:51;28.87;;;14.53;;
2289;SDS011;1153;47.986;7.898;2024-02-28T11:18:16;29.40;;;15.23;;
2289;SDS011;1153;47.986;7.898;2024-02-28T11:20:42;28.97;;;14.47;;
2289;SDS011;1153;47.986;7.898;2024-02-28T11:23:09;36.53;;;14.27;;
2289;SDS011;1153;47.986;7.898;2024-02-28T11:25:34;24.10;;;13.73;;
2289;SDS011;1153;47.986;7.898;2024-02-28T11:27:59;17.07;;;10.43;;
2289;SDS011;1153;47.986;7.898;2024-02-28T11:30:25;19.73;;;10.70;;
2289;SDS011;1153;47.986;7.898;2024-02-28T11:32:53;17.67;;;10.80;;
2289;SDS011;1153;47.986;7.898;2024-02-28T11:35:19;24.50;;;12.03;;
2289;SDS011;1153;47.986;7.898;2024-02-28T11:37:45;22.47;;;12.27;;
2289;SDS011;1153;47.986;7.898;2024-02-28T11:40:10;17.37;;;12.10;;
2289;SDS011;1153;47.986;7.898;2024-02-28T11:42:36;23.97;;;12.57;;
2289;SDS011;1153;47.986;7.898;2024-02-28T11:45:02;21.40;;;12.87;;
2289;SDS011;1153;47.986;7.898;2024-02-28T11:47:30;23.17;;;11.60;;
2289;SDS011;1153;47.986;7.898;2024-02-28T11:49:59;25.57;;;14.03;;
2289;SDS011;1153;47.986;7.898;2024-02-28T11:52:26;19.50;;;12.47;;
2289;SDS011;1153;47.986;7.898;2024-02-28T11:54:51;29.00;;;14.30;;
2289;SDS011;1153;47.986;7.898;2024-02-28T11:57:17;22.97;;;13.60;;
2289;SDS011;1153;47.986;7.898;2024-02-28T11:59:44;25.47;;;13.17;;
2289;SDS011;1153;47.986;7.898;2024-02-28T12:02:12;23.47;;;13.57;;
2289;SDS011;1153;47.986;7.898;2024-02-28T12:04:38;27.43;;;15.07;;
2289;SDS011;1153;47.986;7.898;2024-02-28T12:07:04;29.37;;;13.77;;
2289;SDS011;1153;47.986;7.898;2024-02-28T12:09:29;23.30;;;12.60;;
2289;SDS011;1153;47.986;7.898;2024-02-28T12:11:55;24.53;;;14.63;;
2289;SDS011;1153;47.986;7.898;2024-02-28T12:14:20;35.77;;;14.70;;
2289;SDS011;1153;47.986;7.898;2024-02-28T12:16:45;25.73;;;13.03;;
2289;SDS011;1153;47.986;7.898;2024-02-28T12:19:12;25.13;;;15.60;;
2289;SDS011;1153;47.986;7.898;2024-02-28T12:21:38;21.30;;;12.90;;
2289;SDS011;1153;47.986;7.898;2024-02-28T12:24:04;25.20;;;13.10;;
2289;SDS011;1153;47.986;7.898;2024-02-28T12:26:29;18.00;;;11.23;;
2289;SDS011;1153;47.986;7.898;2024-02-28T12:28:55;22.37;;;12.23;;
2289;SDS011;1153;47.986;7.898;2024-02-28T12:31:20;21.53;;;12.10;;
2289;SDS011;1153;47.986;7.898;2024-02-28T12:33:46;24.67;;;12.77;;
2289;SDS011;1153;47.986;7.898;2024-02-28T12:36:12;26.17;;;13.37;;
2289;SDS011;1153;47.986;7.898;2024-02-28T12:38:37;23.57;;;12.93;;
2289;SDS011;1153;47.986;7.898;2024-02-28T12:41:02;23.40;;;12.47;;
2289;SDS011;1153;47.986;7.898;2024-02-28T12:43:29;20.00;;;12.40;;
2289;SDS011;1153;47.986;7.898;2024-02-28T12:45:54;21.33;;;12.50;;
2289;SDS011;1153;47.986;7.898;2024-02-28T12:48:20;23.13;;;12.73;;
2289;SDS011;1153;47.986;7.898;2024-02-28T12:50:45;18.63;;;12.20;;
2289;SDS011;1153;47.986;7.898;2024-02-28T12:53:10;21.03;;;12.10;;
2289;SDS011;1153;47.986;7.898;2024-02-28T12:55:35;22.63;;;11.63;;
2289;SDS011;1153;47.986;7.898;2024-02-28T12:58:00;17.37;;;11.20;;
2289;SDS011;1153;47.986;7.898;2024-02-28T13:00:29;19.13;;;11.83;;
2289;SDS011;1153;47.986;7.898;2024-02-28T13:02:54;22.90;;;12.00;;
2289;SDS011;1153;47.986;7.898;2024-02-28T13:05:20;19.77;;;11.20;;
2289;SDS011;1153;47.986;7.898;2024-02-28T13:07:45;21.17;;;13.00;;
2289;SDS011;1153;47.986;7.898;2024-02-28T13:10:10;23.73;;;11.00;;
2289;SDS011;1153;47.986;7.898;2024-02-28T13:12:35;22.23;;;11.30;;
2289;SDS011;1153;47.986;7.898;2024-02-28T13:15:01;21.17;;;12.37;;
2289;SDS011;1153;47.986;7.898;2024-02-28T13:17:26;16.90;;;10.63;;
2289;SDS011;1153;47.986;7.898;2024-02-28T13:19:51;15.20;;;10.93;;
2289;SDS011;1153;47.986;7.898;2024-02-28T13:22:16;20.90;;;12.13;;
2289;SDS011;1153;47.986;7.898;2024-02-28T13:24:41;19.53;;;11.43;;
2289;SDS011;1153;47.986;7.898;2024-02-28T13:27:07;20.90;;;12.40;;
2289;SDS011;1153;47.986;7.898;2024-02-28T13:29:34;19.80;;;11.70;;
2289;SDS011;1153;47.986;7.898;2024-02-28T13:31:59;19.43;;;11.30;;
2289;SDS011;1153;47.986;7.898;2024-02-28T13:34:24;22.50;;;12.47;;
2289;SDS011;1153;47.986;7.898;2024-02-28T13:36:49;17.83;;;9.93;;
2289;SDS011;1153;47.986;7.898;2024-02-28T13:39:15;18.80;;;10.60;;
2289;SDS011;1153;47.986;7.898;2024-02-28T13:41:41;17.37;;;9.90;;
2289;SDS011;1153;47.986;7.898;2024-02-28T13:44:06;16.47;;;10.73;;
2289;SDS011;1153;47.986;7.898;2024-02-28T13:46:31;14.17;;;10.27;;
2289;SDS011;1153;47.986;7.898;2024-02-28T13:48:57;18.57;;;10.30;;
2289;SDS011;1153;47.986;7.898;2024-02-28T13:51:23;18.20;;;10.70;;
2289;SDS011;1153;47.986;7.898;2024-02-28T13:53:49;17.53;;;10.70;;
2289;SDS011;1153;47.986;7.898;2024-02-28T13:56:17;18.90;;;10.53;;
2289;SDS011;1153;47.986;7.898;2024-02-28T13:58:42;19.33;;;11.67;;
2289;SDS011;1153;47.986;7.898;2024-02-28T14:01:07;14.00;;;9.73;;
2289;SDS011;1153;47.986;7.898;2024-02-28T14:03:32;20.53;;;10.93;;
2289;SDS011;1153;47.986;7.898;2024-02-28T14:05:58;14.40;;;10.43;;
2289;SDS011;1153;47.986;7.898;2024-02-28T14:08:23;21.97;;;12.33;;
2289;SDS011;1153;47.986;7.898;2024-02-28T14:10:48;19.83;;;10.00;;
2289;SDS011;1153;47.986;7.898;2024-02-28T14:13:13;16.73;;;9.90;;
2289;SDS011;1153;47.986;7.898;2024-02-28T14:15:40;20.87;;;10.50;;
2289;SDS011;1153;47.986;7.898;2024-02-28T14:18:05;13.00;;;9.00;;
2289;SDS011;1153;47.986;7.898;2024-02-28T14:20:31;17.33;;;10.97;;
2289;SDS011;1153;47.986;7.898;2024-02-28T14:22:56;27.83;;;9.50;;
2289;SDS011;1153;47.986;7.898;2024-02-28T14:25:23;14.03;;;9.17;;
2289;SDS011;1153;47.986;7.898;2024-02-28T14:27:48;16.53;;;10.80;;
2289;SDS011;1153;47.986;7.898;2024-02-28T14:30:14;14.07;;;10.33;;
2289;SDS011;1153;47.986;7.898;2024-02-28T14:32:40;18.30;;;9.57;;
2289;SDS011;1153;47.986;7.898;2024-02-28T14:35:05;17.90;;;10.27;;
2289;SDS011;1153;47.986;7.898;2024-02-28T14:37:31;15.90;;;10.87;;
2289;SDS011;1153;47.986;7.898;2024-02-28T14:39:58;14.37;;;9.90;;